sensor_id;sensor_type;location;lat;lon;timestamp;pressure;altitude;pressure_sealevel;temperature;humidity
75359;BME280;64046;51.978;5.934;2023-09-19T00:01:47;100579.41;;;21.24;85.07
75359;BME280;64046;51.978;5.934;2023-09-19T00:04:20;100581.38;;;21.32;84.03
75359;BME280;64046;51.978;5.934;2023-09-19T00:06:57;100592.88;;;21.33;84.19
75359;BME280;64046;51.978;5.934;2023-09-19T00:09:33;100593.81;;;21.41;84.28
75359;BME280;64046;51.978;5.934;2023-09-19T00:12:06;100598.03;;;21.44;84.78
75359;BME280;64046;51.978;5.934;2023-09-19T00:14:40;100601.44;;;21.36;84.94
75359;BME280;64046;51.978;5.934;2023-09-19T00:17:09;100609.44;;;21.26;85.79
75359;BME280;64046;51.978;5.934;2023-09-19T00:19:49;100609.59;;;21.25;86.02
75359;BME280;64046;51.978;5.934;2023-09-19T00:22:23;100611.50;;;21.42;86.11
75359;BME280;64046;51.978;5.934;2023-09-19T00:24:54;100614.19;;;21.33;87.13
75359;BME280;64046;51.978;5.934;2023-09-19T00:27:31;100619.38;;;21.54;87.07
75359;BME280;64046;51.978;5.934;2023-09-19T00:30:04;100615.69;;;21.55;88.08
75359;BME280;64046;51.978;5.934;2023-09-19T00:32:40;100617.00;;;21.41;89.38
75359;BME280;64046;51.978;5.934;2023-09-19T00:35:18;100616.94;;;21.60;88.81
75359;BME280;64046;51.978;5.934;2023-09-19T00:37:52;100619.38;;;21.54;90.63
75359;BME280;64046;51.978;5.934;2023-09-19T00:40:24;100628.03;;;21.46;91.33
75359;BME280;64046;51.978;5.934;2023-09-19T00:43:03;100618.50;;;21.63;90.54
75359;BME280;64046;51.978;5.934;2023-09-19T00:45:33;100629.75;;;21.37;92.05
75359;BME280;64046;51.978;5.934;2023-09-19T00:48:09;100626.78;;;21.40;92.88
75359;BME280;64046;51.978;5.934;2023-09-19T00:50:42;100621.59;;;21.49;92.11
75359;BME280;64046;51.978;5.934;2023-09-19T00:53:36;100639.00;;;21.63;90.40
75359;BME280;64046;51.978;5.934;2023-09-19T00:56:09;100640.53;;;21.46;92.16
75359;BME280;64046;51.978;5.934;2023-09-19T00:58:41;100634.25;;;21.47;92.00
75359;BME280;64046;51.978;5.934;2023-09-19T01:01:11;100641.00;;;21.31;92.88
75359;BME280;64046;51.978;5.934;2023-09-19T01:03:46;100646.47;;;21.30;93.21
75359;BME280;64046;51.978;5.934;2023-09-19T01:06:18;100647.16;;;21.32;93.61
75359;BME280;64046;51.978;5.934;2023-09-19T01:08:49;100642.22;;;21.47;93.10
75359;BME280;64046;51.978;5.934;2023-09-19T01:11:36;100645.03;;;21.55;91.81
75359;BME280;64046;51.978;5.934;2023-09-19T01:14:20;100643.63;;;21.51;92.67
75359;BME280;64046;51.978;5.934;2023-09-19T01:16:59;100645.88;;;21.46;92.80
75359;BME280;64046;51.978;5.934;2023-09-19T01:20:00;100647.28;;;21.50;91.78
75359;BME280;64046;51.978;5.934;2023-09-19T01:22:42;100645.75;;;21.37;93.32
75359;BME280;64046;51.978;5.934;2023-09-19T01:25:50;100653.19;;;21.43;92.46
75359;BME280;64046;51.978;5.934;2023-09-19T01:28:31;100654.84;;;21.35;93.10
75359;BME280;64046;51.978;5.934;2023-09-19T01:31:16;100647.28;;;21.30;93.68
75359;BME280;64046;51.978;5.934;2023-09-19T01:34:07;100646.59;;;21.38;92.23
75359;BME280;64046;51.978;5.934;2023-09-19T01:36:38;100653.63;;;21.29;93.35
75359;BME280;64046;51.978;5.934;2023-09-19T01:39:15;100653.06;;;21.25;94.02
75359;BME280;64046;51.978;5.934;2023-09-19T01:41:56;100657.66;;;21.33;92.45
75359;BME280;64046;51.978;5.934;2023-09-19T01:44:40;100665.41;;;21.36;92.25
75359;BME280;64046;51.978;5.934;2023-09-19T01:47:22;100670.16;;;21.33;91.32
75359;BME280;64046;51.978;5.934;2023-09-19T01:49:59;100670.16;;;21.23;91.41
75359;BME280;64046;51.978;5.934;2023-09-19T01:52:38;100674.94;;;21.19;91.48
75359;BME280;64046;51.978;5.934;2023-09-19T01:55:14;100672.28;;;21.19;90.96
75359;BME280;64046;51.978;5.934;2023-09-19T01:58:06;100664.16;;;21.21;90.38
75359;BME280;64046;51.978;5.934;2023-09-19T02:00:40;100661.06;;;21.06;91.09
75359;BME280;64046;51.978;5.934;2023-09-19T02:03:17;100668.66;;;21.11;90.04
75359;BME280;64046;51.978;5.934;2023-09-19T02:05:50;100669.63;;;21.00;90.19
75359;BME280;64046;51.978;5.934;2023-09-19T02:08:23;100668.50;;;20.92;90.12
75359;BME280;64046;51.978;5.934;2023-09-19T02:10:59;100666.38;;;21.06;88.79
75359;BME280;64046;51.978;5.934;2023-09-19T02:13:29;100685.03;;;20.86;88.93
75359;BME280;64046;51.978;5.934;2023-09-19T02:16:00;100677.72;;;20.79;88.63
75359;BME280;64046;51.978;5.934;2023-09-19T02:18:34;100679.72;;;20.96;87.34
75359;BME280;64046;51.978;5.934;2023-09-19T02:21:22;100675.75;;;20.71;87.37
75359;BME280;64046;51.978;5.934;2023-09-19T02:23:55;100684.84;;;20.68;87.68
75359;BME280;64046;51.978;5.934;2023-09-19T02:26:25;100680.78;;;20.74;88.02
75359;BME280;64046;51.978;5.934;2023-09-19T02:29:01;100680.97;;;20.92;86.81
75359;BME280;64046;51.978;5.934;2023-09-19T02:31:37;100680.97;;;20.82;86.35
75359;BME280;64046;51.978;5.934;2023-09-19T02:34:10;100679.69;;;20.77;85.18
75359;BME280;64046;51.978;5.934;2023-09-19T02:36:43;100682.53;;;20.54;86.56
75359;BME280;64046;51.978;5.934;2023-09-19T02:39:13;100682.09;;;20.49;86.38
75359;BME280;64046;51.978;5.934;2023-09-19T02:41:45;100693.47;;;20.51;86.24
75359;BME280;64046;51.978;5.934;2023-09-19T02:44:16;100685.66;;;20.59;85.79
75359;BME280;64046;51.978;5.934;2023-09-19T02:46:49;100685.78;;;20.57;85.16
75359;BME280;64046;51.978;5.934;2023-09-19T02:49:25;100691.94;;;20.58;85.30
75359;BME280;64046;51.978;5.934;2023-09-19T02:51:56;100693.44;;;20.41;85.68
75359;BME280;64046;51.978;5.934;2023-09-19T02:54:26;100695.41;;;20.39;85.40
75359;BME280;64046;51.978;5.934;2023-09-19T02:57:03;100702.47;;;20.60;83.90
75359;BME280;64046;51.978;5.934;2023-09-19T02:59:40;100693.06;;;20.55;83.24
75359;BME280;64046;51.978;5.934;2023-09-19T03:02:13;100693.53;;;20.30;84.42
75359;BME280;64046;51.978;5.934;2023-09-19T03:04:53;100698.22;;;20.47;83.67
75359;BME280;64046;51.978;5.934;2023-09-19T03:07:30;100702.97;;;20.44;83.81
75359;BME280;64046;51.978;5.934;2023-09-19T03:10:02;100700.69;;;20.29;84.52
75359;BME280;64046;51.978;5.934;2023-09-19T03:12:42;100705.03;;;20.30;84.07
75359;BME280;64046;51.978;5.934;2023-09-19T03:15:16;100702.94;;;20.34;83.80
75359;BME280;64046;51.978;5.934;2023-09-19T03:17:49;100705.38;;;20.47;83.69
75359;BME280;64046;51.978;5.934;2023-09-19T03:20:29;100700.72;;;20.49;83.21
75359;BME280;64046;51.978;5.934;2023-09-19T03:23:04;100704.91;;;20.42;82.96
75359;BME280;64046;51.978;5.934;2023-09-19T03:25:34;100701.53;;;20.30;82.54
75359;BME280;64046;51.978;5.934;2023-09-19T03:28:05;100705.66;;;20.13;82.68
75359;BME280;64046;51.978;5.934;2023-09-19T03:30:37;100699.31;;;20.04;82.30
75359;BME280;64046;51.978;5.934;2023-09-19T03:33:09;100694.25;;;20.01;82.62
75359;BME280;64046;51.978;5.934;2023-09-19T03:36:09;100694.50;;;20.19;81.20
75359;BME280;64046;51.978;5.934;2023-09-19T03:38:39;100697.31;;;19.96;82.53
75359;BME280;64046;51.978;5.934;2023-09-19T03:41:13;100690.41;;;20.15;80.63
75359;BME280;64046;51.978;5.934;2023-09-19T03:43:47;100698.16;;;19.97;81.00
75359;BME280;64046;51.978;5.934;2023-09-19T03:46:20;100699.53;;;19.91;80.50
75359;BME280;64046;51.978;5.934;2023-09-19T03:48:51;100699.91;;;19.86;79.91
75359;BME280;64046;51.978;5.934;2023-09-19T03:51:24;100703.66;;;20.05;79.54
75359;BME280;64046;51.978;5.934;2023-09-19T03:53:55;100693.78;;;19.86;79.72
75359;BME280;64046;51.978;5.934;2023-09-19T03:56:27;100703.53;;;19.85;79.15
75359;BME280;64046;51.978;5.934;2023-09-19T03:58:58;100693.63;;;19.87;78.20
75359;BME280;64046;51.978;5.934;2023-09-19T04:01:31;100695.34;;;19.98;77.40
75359;BME280;64046;51.978;5.934;2023-09-19T04:04:01;100692.81;;;19.76;78.52
75359;BME280;64046;51.978;5.934;2023-09-19T04:06:40;100685.66;;;19.87;77.70
75359;BME280;64046;51.978;5.934;2023-09-19T04:09:10;100691.91;;;19.65;78.17
75359;BME280;64046;51.978;5.934;2023-09-19T04:11:42;100696.28;;;19.87;77.15
75359;BME280;64046;51.978;5.934;2023-09-19T04:14:17;100693.75;;;19.65;77.30
75359;BME280;64046;51.978;5.934;2023-09-19T04:16:49;100697.22;;;19.65;77.33
75359;BME280;64046;51.978;5.934;2023-09-19T04:19:31;100708.28;;;19.82;76.53
75359;BME280;64046;51.978;5.934;2023-09-19T04:22:06;100719.41;;;19.76;76.57
75359;BME280;64046;51.978;5.934;2023-09-19T04:24:40;100715.09;;;19.75;76.86
75359;BME280;64046;51.978;5.934;2023-09-19T04:27:18;100721.38;;;19.74;76.78
75359;BME280;64046;51.978;5.934;2023-09-19T04:29:49;100742.13;;;19.59;76.05
75359;BME280;64046;51.978;5.934;2023-09-19T04:32:22;100743.66;;;19.61;75.53
75359;BME280;64046;51.978;5.934;2023-09-19T04:34:52;100746.91;;;19.65;75.92
75359;BME280;64046;51.978;5.934;2023-09-19T04:37:29;100751.09;;;19.79;74.74
75359;BME280;64046;51.978;5.934;2023-09-19T04:40:00;100753.97;;;19.76;74.93
75359;BME280;64046;51.978;5.934;2023-09-19T04:42:39;100764.91;;;19.61;74.55
75359;BME280;64046;51.978;5.934;2023-09-19T04:45:15;100762.69;;;19.78;74.33
75359;BME280;64046;51.978;5.934;2023-09-19T04:47:46;100757.94;;;19.60;74.65
75359;BME280;64046;51.978;5.934;2023-09-19T04:50:20;100766.22;;;19.67;74.79
75359;BME280;64046;51.978;5.934;2023-09-19T04:52:57;100765.47;;;19.76;74.12
75359;BME280;64046;51.978;5.934;2023-09-19T04:55:29;100767.72;;;19.60;74.65
75359;BME280;64046;51.978;5.934;2023-09-19T04:58:03;100771.03;;;19.73;73.84
75359;BME280;64046;51.978;5.934;2023-09-19T05:00:33;100772.44;;;19.56;74.25
75359;BME280;64046;51.978;5.934;2023-09-19T05:03:04;100780.72;;;19.63;73.49
75359;BME280;64046;51.978;5.934;2023-09-19T05:05:36;100785.59;;;19.58;73.40
75359;BME280;64046;51.978;5.934;2023-09-19T05:08:12;100776.59;;;19.70;73.04
75359;BME280;64046;51.978;5.934;2023-09-19T05:10:46;100770.72;;;19.66;73.07
75359;BME280;64046;51.978;5.934;2023-09-19T05:13:15;100767.53;;;19.51;73.67
75359;BME280;64046;51.978;5.934;2023-09-19T05:15:49;100762.22;;;19.73;73.46
75359;BME280;64046;51.978;5.934;2023-09-19T05:18:24;100760.13;;;19.55;74.10
75359;BME280;64046;51.978;5.934;2023-09-19T05:20:56;100756.63;;;19.54;74.45
75359;BME280;64046;51.978;5.934;2023-09-19T05:23:33;100773.94;;;19.70;74.22
75359;BME280;64046;51.978;5.934;2023-09-19T05:26:03;100775.69;;;19.60;74.92
75359;BME280;64046;51.978;5.934;2023-09-19T05:28:34;100768.94;;;19.56;74.82
75359;BME280;64046;51.978;5.934;2023-09-19T05:31:04;100771.72;;;19.54;74.82
75359;BME280;64046;51.978;5.934;2023-09-19T05:33:37;100770.44;;;19.69;74.57
75359;BME280;64046;51.978;5.934;2023-09-19T05:36:09;100769.53;;;19.59;75.42
75359;BME280;64046;51.978;5.934;2023-09-19T05:38:47;100764.59;;;19.76;74.89
75359;BME280;64046;51.978;5.934;2023-09-19T05:41:19;100772.75;;;19.63;75.19
75359;BME280;64046;51.978;5.934;2023-09-19T05:43:49;100784.34;;;19.73;75.00
75359;BME280;64046;51.978;5.934;2023-09-19T05:46:22;100774.59;;;19.62;75.11
75359;BME280;64046;51.978;5.934;2023-09-19T05:48:54;100777.59;;;19.69;75.19
75359;BME280;64046;51.978;5.934;2023-09-19T05:51:26;100781.69;;;19.73;75.25
75359;BME280;64046;51.978;5.934;2023-09-19T05:54:08;100778.91;;;19.96;74.42
75359;BME280;64046;51.978;5.934;2023-09-19T05:56:40;100774.78;;;19.70;75.84
75359;BME280;64046;51.978;5.934;2023-09-19T05:59:10;100760.63;;;19.70;76.13
75359;BME280;64046;51.978;5.934;2023-09-19T06:01:43;100773.44;;;19.76;76.14
75359;BME280;64046;51.978;5.934;2023-09-19T06:04:16;100777.06;;;19.75;75.97
75359;BME280;64046;51.978;5.934;2023-09-19T06:06:49;100777.06;;;19.75;76.22
75359;BME280;64046;51.978;5.934;2023-09-19T06:09:26;100774.59;;;19.95;75.66
75359;BME280;64046;51.978;5.934;2023-09-19T06:12:01;100785.59;;;19.90;76.59
75359;BME280;64046;51.978;5.934;2023-09-19T06:14:31;100788.06;;;19.82;76.66
75359;BME280;64046;51.978;5.934;2023-09-19T06:17:07;100795.78;;;19.85;76.26
75359;BME280;64046;51.978;5.934;2023-09-19T06:19:37;100785.34;;;19.93;76.65
75359;BME280;64046;51.978;5.934;2023-09-19T06:22:08;100787.16;;;19.93;77.02
75359;BME280;64046;51.978;5.934;2023-09-19T06:24:43;100792.59;;;20.12;76.62
75359;BME280;64046;51.978;5.934;2023-09-19T06:27:13;100786.66;;;19.99;76.79
75359;BME280;64046;51.978;5.934;2023-09-19T06:29:45;100790.28;;;19.98;76.80
75359;BME280;64046;51.978;5.934;2023-09-19T06:32:17;100785.19;;;20.16;76.48
75359;BME280;64046;51.978;5.934;2023-09-19T06:34:53;100803.56;;;20.19;76.65
75359;BME280;64046;51.978;5.934;2023-09-19T06:37:27;100800.19;;;20.17;77.10
75359;BME280;64046;51.978;5.934;2023-09-19T06:39:59;100816.63;;;20.22;76.98
75359;BME280;64046;51.978;5.934;2023-09-19T06:42:29;100816.28;;;20.15;77.58
75359;BME280;64046;51.978;5.934;2023-09-19T06:45:01;100807.59;;;20.13;77.85
75359;BME280;64046;51.978;5.934;2023-09-19T06:47:33;100814.84;;;20.32;77.71
75359;BME280;64046;51.978;5.934;2023-09-19T06:50:03;100807.25;;;20.28;78.00
75359;BME280;64046;51.978;5.934;2023-09-19T06:52:40;100800.38;;;20.25;78.32
75359;BME280;64046;51.978;5.934;2023-09-19T06:55:14;100806.38;;;20.48;77.92
75359;BME280;64046;51.978;5.934;2023-09-19T06:57:47;100804.81;;;20.46;78.21
75359;BME280;64046;51.978;5.934;2023-09-19T07:00:19;100802.00;;;20.37;78.50
75359;BME280;64046;51.978;5.934;2023-09-19T07:02:55;100800.00;;;20.61;77.70
75359;BME280;64046;51.978;5.934;2023-09-19T07:05:29;100794.81;;;20.59;78.08
75359;BME280;64046;51.978;5.934;2023-09-19T07:07:59;100802.06;;;20.57;78.56
75359;BME280;64046;51.978;5.934;2023-09-19T07:10:34;100808.16;;;20.69;78.00
75359;BME280;64046;51.978;5.934;2023-09-19T07:13:06;100812.06;;;20.65;78.00
75359;BME280;64046;51.978;5.934;2023-09-19T07:15:38;100811.56;;;20.71;77.72
75359;BME280;64046;51.978;5.934;2023-09-19T07:18:13;100804.09;;;20.65;78.48
75359;BME280;64046;51.978;5.934;2023-09-19T07:20:43;100809.03;;;20.69;78.33
75359;BME280;64046;51.978;5.934;2023-09-19T07:23:16;100808.47;;;20.76;78.23
75359;BME280;64046;51.978;5.934;2023-09-19T07:25:51;100825.06;;;20.89;78.03
75359;BME280;64046;51.978;5.934;2023-09-19T07:28:27;100812.75;;;20.88;78.11
75359;BME280;64046;51.978;5.934;2023-09-19T07:30:57;100820.81;;;20.77;78.22
75359;BME280;64046;51.978;5.934;2023-09-19T07:35:57;100818.09;;;20.98;77.70
75359;BME280;64046;51.978;5.934;2023-09-19T07:38:30;100828.28;;;20.83;77.95
75359;BME280;64046;51.978;5.934;2023-09-19T07:41:04;100813.06;;;21.04;77.25
75359;BME280;64046;51.978;5.934;2023-09-19T07:43:36;100830.00;;;20.94;77.48
75359;BME280;64046;51.978;5.934;2023-09-19T07:46:07;100829.19;;;21.03;77.13
75359;BME280;64046;51.978;5.934;2023-09-19T07:48:40;100829.78;;;21.16;76.64
75359;BME280;64046;51.978;5.934;2023-09-19T07:51:17;100826.44;;;21.24;76.62
75359;BME280;64046;51.978;5.934;2023-09-19T07:53:47;100827.81;;;21.18;76.90
75359;BME280;64046;51.978;5.934;2023-09-19T07:56:23;100839.78;;;21.34;75.94
75359;BME280;64046;51.978;5.934;2023-09-19T07:58:53;100838.16;;;21.12;76.32
75359;BME280;64046;51.978;5.934;2023-09-19T08:01:26;100828.94;;;21.16;76.36
75359;BME280;64046;51.978;5.934;2023-09-19T08:03:57;100838.16;;;21.12;76.69
75359;BME280;64046;51.978;5.934;2023-09-19T08:06:32;100837.81;;;21.36;76.04
75359;BME280;64046;51.978;5.934;2023-09-19T08:09:03;100840.31;;;21.27;75.88
75359;BME280;64046;51.978;5.934;2023-09-19T08:11:44;100828.91;;;21.56;74.78
75359;BME280;64046;51.978;5.934;2023-09-19T08:14:16;100827.22;;;21.55;74.90
75359;BME280;64046;51.978;5.934;2023-09-19T08:16:46;100840.94;;;21.51;74.86
75359;BME280;64046;51.978;5.934;2023-09-19T08:19:18;100830.84;;;21.54;74.39
75359;BME280;64046;51.978;5.934;2023-09-19T08:21:51;100830.84;;;21.74;74.20
75359;BME280;64046;51.978;5.934;2023-09-19T08:24:21;100827.75;;;21.59;74.11
75359;BME280;64046;51.978;5.934;2023-09-19T08:26:58;100837.59;;;21.78;74.45
75359;BME280;64046;51.978;5.934;2023-09-19T08:29:31;100841.53;;;21.74;74.57
75359;BME280;64046;51.978;5.934;2023-09-19T08:32:01;100836.19;;;21.74;73.93
75359;BME280;64046;51.978;5.934;2023-09-19T08:34:32;100832.25;;;21.78;73.91
75359;BME280;64046;51.978;5.934;2023-09-19T08:37:07;100841.25;;;21.97;73.65
75359;BME280;64046;51.978;5.934;2023-09-19T08:39:37;100845.03;;;21.84;73.90
75359;BME280;64046;51.978;5.934;2023-09-19T08:42:09;100833.91;;;22.08;72.79
75359;BME280;64046;51.978;5.934;2023-09-19T08:44:40;100828.72;;;21.97;73.35
75359;BME280;64046;51.978;5.934;2023-09-19T08:47:11;100830.28;;;22.09;73.44
75359;BME280;64046;51.978;5.934;2023-09-19T08:49:53;100832.06;;;22.28;72.53
75359;BME280;64046;51.978;5.934;2023-09-19T08:52:30;100827.00;;;22.25;72.95
75359;BME280;64046;51.978;5.934;2023-09-19T08:55:06;100838.09;;;22.40;72.04
75359;BME280;64046;51.978;5.934;2023-09-19T08:57:42;100848.06;;;22.48;71.25
75359;BME280;64046;51.978;5.934;2023-09-19T09:00:16;100833.03;;;22.37;71.79
75359;BME280;64046;51.978;5.934;2023-09-19T09:02:48;100839.03;;;22.49;71.50
75359;BME280;64046;51.978;5.934;2023-09-19T09:05:19;100838.59;;;22.54;71.41
75359;BME280;64046;51.978;5.934;2023-09-19T09:07:55;100819.47;;;22.68;70.55
75359;BME280;64046;51.978;5.934;2023-09-19T09:10:28;100833.66;;;22.69;70.35
75359;BME280;64046;51.978;5.934;2023-09-19T09:13:03;100839.41;;;22.74;69.85
75359;BME280;64046;51.978;5.934;2023-09-19T09:15:35;100834.59;;;22.77;69.78
75359;BME280;64046;51.978;5.934;2023-09-19T09:18:10;100833.25;;;22.91;69.06
75359;BME280;64046;51.978;5.934;2023-09-19T09:20:41;100826.44;;;22.79;68.51
75359;BME280;64046;51.978;5.934;2023-09-19T09:23:16;100819.72;;;23.03;68.05
75359;BME280;64046;51.978;5.934;2023-09-19T09:25:52;100822.22;;;23.04;67.97
75359;BME280;64046;51.978;5.934;2023-09-19T09:28:29;100836.66;;;23.21;66.76
75359;BME280;64046;51.978;5.934;2023-09-19T09:31:00;100825.88;;;23.13;67.21
75359;BME280;64046;51.978;5.934;2023-09-19T09:33:34;100831.16;;;23.23;65.81
75359;BME280;64046;51.978;5.934;2023-09-19T09:36:06;100822.00;;;23.43;64.80
75359;BME280;64046;51.978;5.934;2023-09-19T09:38:46;100818.63;;;23.59;63.96
75359;BME280;64046;51.978;5.934;2023-09-19T09:41:35;100817.56;;;23.70;62.63
75359;BME280;64046;51.978;5.934;2023-09-19T09:44:15;100809.75;;;23.77;63.27
75359;BME280;64046;51.978;5.934;2023-09-19T09:46:48;100806.41;;;23.57;63.07
75359;BME280;64046;51.978;5.934;2023-09-19T09:49:36;100805.19;;;23.51;62.02
75359;BME280;64046;51.978;5.934;2023-09-19T09:52:13;100816.88;;;23.50;61.49
75359;BME280;64046;51.978;5.934;2023-09-19T09:54:59;100816.47;;;23.81;59.62
75359;BME280;64046;51.978;5.934;2023-09-19T09:57:31;100821.69;;;23.64;59.64
75359;BME280;64046;51.978;5.934;2023-09-19T10:00:07;100818.16;;;23.82;59.42
75359;BME280;64046;51.978;5.934;2023-09-19T10:02:52;100818.31;;;23.80;59.15
75359;BME280;64046;51.978;5.934;2023-09-19T10:05:21;100810.75;;;23.76;58.97
75359;BME280;64046;51.978;5.934;2023-09-19T10:07:55;100816.13;;;23.76;59.22
75359;BME280;64046;51.978;5.934;2023-09-19T10:10:30;100818.31;;;23.98;58.73
75359;BME280;64046;51.978;5.934;2023-09-19T10:13:20;100813.75;;;23.91;58.91
75359;BME280;64046;51.978;5.934;2023-09-19T10:15:58;100805.53;;;24.10;58.45
75359;BME280;64046;51.978;5.934;2023-09-19T10:18:36;100796.69;;;23.92;59.29
75359;BME280;64046;51.978;5.934;2023-09-19T10:21:08;100786.41;;;24.05;58.54
75359;BME280;64046;51.978;5.934;2023-09-19T10:23:43;100804.00;;;24.08;57.72
75359;BME280;64046;51.978;5.934;2023-09-19T10:26:17;100800.03;;;24.12;57.90
75359;BME280;64046;51.978;5.934;2023-09-19T10:28:51;100783.22;;;24.01;57.44
75359;BME280;64046;51.978;5.934;2023-09-19T10:31:28;100789.94;;;24.06;57.11
75359;BME280;64046;51.978;5.934;2023-09-19T10:34:03;100791.09;;;24.03;57.93
75359;BME280;64046;51.978;5.934;2023-09-19T10:36:47;100791.00;;;24.13;57.49
75359;BME280;64046;51.978;5.934;2023-09-19T10:39:24;100806.94;;;24.23;57.31
75359;BME280;64046;51.978;5.934;2023-09-19T10:41:57;100808.47;;;24.25;57.07
75359;BME280;64046;51.978;5.934;2023-09-19T10:44:33;100806.25;;;24.21;57.36
75359;BME280;64046;51.978;5.934;2023-09-19T10:47:18;100806.81;;;24.32;56.72
75359;BME280;64046;51.978;5.934;2023-09-19T10:49:53;100806.91;;;24.14;57.01
75359;BME280;64046;51.978;5.934;2023-09-19T10:52:27;100797.44;;;24.28;56.61
75359;BME280;64046;51.978;5.934;2023-09-19T10:55:01;100789.97;;;24.14;56.39
75359;BME280;64046;51.978;5.934;2023-09-19T10:57:33;100801.72;;;24.21;56.80
75359;BME280;64046;51.978;5.934;2023-09-19T11:00:05;100810.63;;;24.22;56.69
75359;BME280;64046;51.978;5.934;2023-09-19T11:03:19;100798.38;;;24.45;55.91
75359;BME280;64046;51.978;5.934;2023-09-19T11:06:09;100790.28;;;24.37;55.89
75359;BME280;64046;51.978;5.934;2023-09-19T11:08:57;100782.53;;;24.26;56.56
75359;BME280;64046;51.978;5.934;2023-09-19T11:11:45;100765.16;;;24.04;57.48
75359;BME280;64046;51.978;5.934;2023-09-19T11:14:32;100766.38;;;24.09;56.93
75359;BME280;64046;51.978;5.934;2023-09-19T11:20:22;100744.78;;;24.11;57.08
75359;BME280;64046;51.978;5.934;2023-09-19T11:23:21;100752.34;;;24.15;57.11
75359;BME280;64046;51.978;5.934;2023-09-19T11:25:57;100738.50;;;23.94;57.89
75359;BME280;64046;51.978;5.934;2023-09-19T11:28:34;100745.34;;;24.23;57.09
75359;BME280;64046;51.978;5.934;2023-09-19T11:40:12;100741.94;;;24.47;55.88
75359;BME280;64046;51.978;5.934;2023-09-19T11:42:48;100742.88;;;24.29;56.75
75359;BME280;64046;51.978;5.934;2023-09-19T11:48:24;100734.34;;;24.34;55.76
75359;BME280;64046;51.978;5.934;2023-09-19T11:50:54;100736.88;;;24.35;55.89
75359;BME280;64046;51.978;5.934;2023-09-19T11:53:33;100732.44;;;24.52;55.01
75359;BME280;64046;51.978;5.934;2023-09-19T11:56:10;100727.94;;;24.53;54.44
75359;BME280;64046;51.978;5.934;2023-09-19T11:58:44;100741.78;;;24.40;54.05
75359;BME280;64046;51.978;5.934;2023-09-19T12:01:21;100727.44;;;24.58;54.05
75359;BME280;64046;51.978;5.934;2023-09-19T12:03:54;100724.75;;;24.58;53.48
75359;BME280;64046;51.978;5.934;2023-09-19T12:06:27;100737.13;;;24.50;53.75
75359;BME280;64046;51.978;5.934;2023-09-19T12:08:59;100738.31;;;24.56;53.50
75359;BME280;64046;51.978;5.934;2023-09-19T12:11:48;100742.25;;;24.78;52.34
75359;BME280;64046;51.978;5.934;2023-09-19T12:14:23;100727.53;;;24.82;52.53
75359;BME280;64046;51.978;5.934;2023-09-19T12:16:56;100728.00;;;24.69;52.40
75359;BME280;64046;51.978;5.934;2023-09-19T12:19:31;100724.69;;;24.84;52.02
75359;BME280;64046;51.978;5.934;2023-09-19T12:22:03;100722.03;;;24.92;52.01
75359;BME280;64046;51.978;5.934;2023-09-19T12:24:36;100713.63;;;24.79;52.27
75359;BME280;64046;51.978;5.934;2023-09-19T12:27:15;100721.53;;;24.97;50.98
75359;BME280;64046;51.978;5.934;2023-09-19T12:29:47;100719.84;;;24.87;51.86
75359;BME280;64046;51.978;5.934;2023-09-19T12:32:35;100731.28;;;25.06;50.84
75359;BME280;64046;51.978;5.934;2023-09-19T12:35:27;100736.97;;;25.11;50.33
75359;BME280;64046;51.978;5.934;2023-09-19T12:38:09;100721.84;;;24.85;50.59
75359;BME280;64046;51.978;5.934;2023-09-19T12:40:42;100731.75;;;24.85;51.04
75359;BME280;64046;51.978;5.934;2023-09-19T12:43:16;100735.28;;;24.94;50.73
75359;BME280;64046;51.978;5.934;2023-09-19T12:45:50;100739.75;;;24.77;50.95
75359;BME280;64046;51.978;5.934;2023-09-19T12:48:22;100720.13;;;24.68;50.95
75359;BME280;64046;51.978;5.934;2023-09-19T12:51:07;100717.97;;;24.80;50.48
75359;BME280;64046;51.978;5.934;2023-09-19T12:53:42;100729.25;;;24.57;51.19
75359;BME280;64046;51.978;5.934;2023-09-19T12:56:15;100723.22;;;24.55;51.07
75359;BME280;64046;51.978;5.934;2023-09-19T12:58:54;100728.69;;;24.72;51.05
75359;BME280;64046;51.978;5.934;2023-09-19T13:01:30;100715.84;;;24.57;51.44
75359;BME280;64046;51.978;5.934;2023-09-19T13:04:14;100726.00;;;24.80;51.45
75359;BME280;64046;51.978;5.934;2023-09-19T13:06:46;100727.13;;;24.61;52.01
75359;BME280;64046;51.978;5.934;2023-09-19T13:09:21;100725.16;;;24.71;51.53
75359;BME280;64046;51.978;5.934;2023-09-19T13:11:58;100723.72;;;24.50;51.90
75359;BME280;64046;51.978;5.934;2023-09-19T13:14:38;100723.13;;;24.65;51.79
75359;BME280;64046;51.978;5.934;2023-09-19T13:17:15;100716.41;;;24.61;52.49
75359;BME280;64046;51.978;5.934;2023-09-19T13:19:50;100716.91;;;24.64;52.40
75359;BME280;64046;51.978;5.934;2023-09-19T13:22:39;100720.31;;;24.83;51.47
75359;BME280;64046;51.978;5.934;2023-09-19T13:25:10;100725.97;;;24.63;52.37
75359;BME280;64046;51.978;5.934;2023-09-19T13:27:51;100722.00;;;24.84;52.08
75359;BME280;64046;51.978;5.934;2023-09-19T13:30:26;100719.00;;;24.79;52.18
75359;BME280;64046;51.978;5.934;2023-09-19T13:33:07;100711.94;;;24.78;52.28
75359;BME280;64046;51.978;5.934;2023-09-19T13:35:41;100712.59;;;24.63;52.58
75359;BME280;64046;51.978;5.934;2023-09-19T13:38:15;100710.06;;;24.62;52.86
75359;BME280;64046;51.978;5.934;2023-09-19T13:40:48;100709.81;;;24.47;53.13
75359;BME280;64046;51.978;5.934;2023-09-19T13:43:21;100713.81;;;24.43;53.30
75359;BME280;64046;51.978;5.934;2023-09-19T13:45:57;100724.28;;;24.62;53.10
75359;BME280;64046;51.978;5.934;2023-09-19T13:48:27;100718.50;;;24.41;53.30
75359;BME280;64046;51.978;5.934;2023-09-19T13:50:56;100710.28;;;24.42;53.15